• Join FlightAware (Why Join?)
  • Login
  • US Flag 
Rudolph Flight #1: Arrived! 
11:05PM EST


 

Airport Tracker/Info


-or-


 

Live Flight TrackerFlight Track Log ✈ BAW2648 ✈ 16-Mar-2014 ✈ EGKK / LGW - LATI / TIA

Flight Track Log - Related Links

Times and Time Zones

All times are in EDT time to prevent confusion due to time zone crossing. See the BAW2648 flight status page for this flight to view local times or setup timezone preferences in your user account.

Time Position Orientation Groundspeed Altitude Reporting Facility
EDT Latitude Longitude Course Direction KTS MPH feet Rate Location/Type
04:57AM 51.1433 -0.2235 257° West 164 189 1,000  Level FlightAware UK
04:57AM 51.1422 -0.2312 257° West 164 189 1,400 1,680 Climbing FlightAware ADS-B (EGLF / FAB)
04:58AM 51.1390 -0.2560 259° West 186 214 1,800 1,200 Climbing FlightAware ADS-B
04:58AM 51.1378 -0.2862 280° West 212 244 2,200 1,200 Climbing FlightAware ADS-B (EGLF / FAB)
04:58AM 51.1389 -0.2925 289° West 214 246 2,300 1,200 Climbing FlightAware ADS-B
04:58AM 51.1417 -0.3011 302° West 221 254 2,400 1,380 Climbing FlightAware ADS-B (EGLF / FAB)
04:58AM 51.1546 -0.3174 324° Northwest 234 269 2,700 1,500 Climbing FlightAware ADS-B
04:59AM 51.1576 -0.3189 347° North 241 277 2,900 1,980 Climbing FlightAware ADS-B (EGLF / FAB)
04:59AM 51.1660 -0.3205 357° North 242 278 3,200 3,300 Climbing FlightAware ADS-B
04:59AM 51.1696 -0.3200 North 243 280 3,400 3,960 Climbing FlightAware ADS-B
04:59AM 51.1729 -0.3190 12° North 246 283 3,600 3,420 Climbing FlightAware ADS-B
04:59AM 51.1779 -0.3163 19° North 249 287 3,800 2,220 Climbing FlightAware ADS-B
04:59AM 51.1813 -0.3138 27° Northeast 254 292 3,900 2,400 Climbing FlightAware ADS-B
04:59AM 51.1827 -0.3124 32° Northeast 249 287 4,000 3,960 Climbing FlightAware ADS-B (EGHI / SOU)
04:59AM 51.1849 -0.3101 35° Northeast 258 297 4,100 3,600 Climbing FlightAware ADS-B
04:59AM 51.1877 -0.3065 41° Northeast 261 300 4,300 3,720 Climbing FlightAware ADS-B
04:59AM 51.1915 -0.3001 49° Northeast 264 304 4,600 3,300 Climbing FlightAware ADS-B
04:59AM 51.1947 -0.2930 57° Northeast 270 311 4,800 3,000 Climbing FlightAware ADS-B
04:59AM 51.1971 -0.2864 62° Northeast 274 315 5,000 2,400 Climbing FlightAware ADS-B
04:59AM 51.1971 -0.2864 62° Northeast 274 315 5,000 1,980 Level FlightAware ADS-B (EGLF / FAB)
04:59AM 51.1988 -0.2809 66° East 278 320 5,100 2,520 Climbing FlightAware ADS-B
04:59AM 51.2014 -0.2705 70° East 283 326 5,300 1,560 Climbing FlightAware ADS-B
05:00AM 51.2070 -0.2430 74° East 283 326 5,600 1,080 Climbing FlightAware ADS-B (EGHI / SOU)
05:00AM 51.2079 -0.2390 72° East 286 329 5,600  Level FlightAware ADS-B
05:00AM 51.2079 -0.2389 74° East 284 327 5,600 360 Level FlightAware ADS-B (EGHO)
05:00AM 51.2144 -0.2065 72° East 287 330 5,700 360 Climbing FlightAware ADS-B
05:00AM 51.2144 -0.2065 72° East 287 330 5,700 1,320 Level FlightAware ADS-B (EGLF / FAB)
05:00AM 51.2215 -0.1715 72° East 289 333 6,100 1,380 Climbing FlightAware ADS-B
05:00AM 51.2231 -0.1634 73° East 288 331 6,200 3,000 Climbing FlightAware ADS-B (EGHI / SOU)
05:00AM 51.2265 -0.1475 73° East 290 334 6,700 3,240 Climbing FlightAware ADS-B (EGHO)
05:00AM 51.2278 -0.1414 71° East 292 336 6,800 3,180 Climbing FlightAware ADS-B
05:01AM 51.2331 -0.1167 71° East 291 335 7,500 3,600 Climbing FlightAware ADS-B (EGHO)
05:01AM 51.2345 -0.1102 71° East 291 335 7,700 3,480 Climbing FlightAware ADS-B
05:01AM 51.2384 -0.0919 73° East 290 334 8,200 3,360 Climbing FlightAware ADS-B (EGHO)
05:01AM 51.2413 -0.0780 72° East 293 337 8,600 3,300 Climbing FlightAware ADS-B
05:01AM 51.2422 -0.0735 74° East 292 336 8,700 3,000 Climbing FlightAware ADS-B
05:01AM 51.2439 -0.0644 74° East 294 338 8,900 2,160 Climbing FlightAware ADS-B (EGHO)
05:01AM 51.2464 -0.0514 75° East 297 342 9,100 2,400 Climbing FlightAware ADS-B
05:01AM 51.2480 -0.0434 73° East 301 346 9,300 2,820 Climbing FlightAware ADS-B
05:01AM 51.2535 -0.0134 74° East 304 350 9,900 3,120 Climbing FlightAware ADS-B (EGHO)
05:02AM 51.2573 0.0087 75° East 307 353 10,400 2,460 Climbing FlightAware ADS-B
05:02AM 51.2596 0.0223 75° East 312 359 10,600 900 Climbing FlightAware ADS-B
05:02AM 51.2636 0.0455 76° East 324 373 10,700 900 Climbing FlightAware ADS-B (EGHI / SOU)
05:02AM 51.2671 0.0653 75° East 333 383 10,900 1,200 Climbing FlightAware ADS-B (EGLF / FAB)
05:02AM 51.2722 0.0941 74° East 350 403 11,100 1,560 Climbing FlightAware ADS-B
05:03AM 51.2806 0.1413 74° East 363 418 11,700 1,980 Climbing FlightAware ADS-B (EGHI / SOU)
05:03AM 51.2859 0.1708 74° East 369 425 12,100 1,500 Climbing FlightAware ADS-B
05:03AM 51.2912 0.1994 74° East 373 429 12,300 1,380 Climbing FlightAware ADS-B (EGLC / LCY)
05:03AM 51.2962 0.2265 75° East 385 443 12,600 2,460 Climbing FlightAware ADS-B (EGHO)
05:03AM 51.3009 0.2522 73° East 387 445 13,000 2,280 Climbing FlightAware ADS-B
05:03AM 51.3024 0.2599 73° East 388 447 13,100 2,100 Climbing FlightAware ADS-B
05:04AM 51.3171 0.3373 73° East 396 456 14,100 2,160 Climbing FlightAware ADS-B
05:04AM 51.3186 0.3452 73° East 397 457 14,200 2,400 Climbing FlightAware ADS-B
05:04AM 51.3312 0.4118 74° East 401 461 15,200 2,640 Climbing FlightAware ADS-B
05:04AM 51.3327 0.4221 78° East 403 464 15,400 3,000 Climbing FlightAware ADS-B
05:04AM 51.3329 0.4239 79° East 403 464 15,400 1,680 Level FlightAware ADS-B (EGLC / LCY)
05:04AM 51.3344 0.4422 85° East 407 468 15,600 2,220 Climbing FlightAware ADS-B
05:04AM 51.3346 0.4470 86° East 408 470 15,700 3,000 Climbing FlightAware ADS-B (EGLC / LCY)
05:04AM 51.3347 0.4610 91° East 411 473 15,900 2,520 Climbing FlightAware ADS-B
05:04AM 51.3345 0.4670 91° East 411 473 16,000 1,200 Climbing FlightAware ADS-B (EGSR)
05:05AM 51.3340 0.4762 96° East 415 478 16,000 2,280 Level FlightAware ADS-B
05:05AM 51.3256 0.5617 99° East 416 479 17,200 2,280 Climbing FlightAware ADS-B (EGLC / LCY)
05:05AM 51.3248 0.5690 99° East 417 480 17,200 1,560 Level FlightAware ADS-B
05:06AM 51.3163 0.6525 99° East 424 488 18,000 1,740 Climbing FlightAware ADS-B
05:06AM 51.3150 0.6649 99° East 424 488 18,100 1,860 Climbing FlightAware ADS-B
05:06AM 51.3061 0.7526 99° East 430 495 19,000 1,860 Climbing FlightAware ADS-B (EGLF / FAB)
05:06AM 51.3031 0.7814 99° East 432 497 19,300 1,800 Climbing FlightAware ADS-B
05:07AM 51.2969 0.8414 99° East 436 502 19,900 1,740 Climbing FlightAware ADS-B (EGLF / FAB)
05:07AM 51.2930 0.8794 99° East 437 503 20,200 1,740 Climbing FlightAware ADS-B
05:07AM 51.2906 0.9022 98° East 436 502 20,400 1,980 Climbing FlightAware ADS-B (EGHO)
05:07AM 51.2868 0.9385 98° East 437 503 20,800 1,860 Climbing FlightAware ADS-B (EGHO)
05:07AM 51.2853 0.9525 98° East 438 504 20,900 1,200 Climbing FlightAware ADS-B (EGMD / LYX)
05:07AM 51.2841 0.9647 100° East 440 506 21,000 1,680 Climbing FlightAware ADS-B (EGLC / LCY)
05:07AM 51.2829 0.9762 100° East 440 506 21,100 1,200 Climbing FlightAware ADS-B
05:07AM 51.2821 0.9833 99° East 440 506 21,100 1,380 Level FlightAware ADS-B (EGMD / LYX)
05:07AM 51.2785 1.0173 99° East 442 509 21,400 1,560 Climbing FlightAware ADS-B (EGMD / LYX)
05:08AM 51.2769 1.0335 98° East 444 511 21,500 1,500 Climbing FlightAware ADS-B (EGHI / SOU)
05:08AM 51.2745 1.0554 99° East 445 512 21,700 1,620 Climbing FlightAware ADS-B (EGHO)
05:08AM 51.2705 1.0938 100° East 447 514 22,000 1,620 Climbing FlightAware ADS-B
05:08AM 51.2682 1.1152 99° East 446 513 22,200 1,560 Climbing FlightAware ADS-B (EGMD / LYX)
05:08AM 51.2589 1.2023 100° East 448 516 22,900 1,500 Climbing FlightAware ADS-B
05:08AM 51.2570 1.2200 99° East 450 518 23,000 720 Climbing FlightAware ADS-B (EGHO)
05:09AM 51.2531 1.2563 99° East 455 524 23,100 1,260 Climbing FlightAware ADS-B (EGHO)
05:09AM 51.2472 1.3115 100° East 459 528 23,600 1,500 Climbing FlightAware ADS-B
05:09AM 51.2361 1.4139 100° East 464 534 24,300 1,440 Climbing FlightAware ADS-B
05:10AM 51.2219 1.5187 107° East 474 545 25,100 1,560 Climbing FlightAware ADS-B
05:10AM 51.2219 1.5187 108° East 475 547 25,200 1,320 Climbing FlightAware ADS-B (EGLF / FAB)
05:10AM 51.2147 1.5511 111° Southeast 478 550 25,300 1,080 Climbing FlightAware ADS-B
05:10AM 51.2120 1.5615 112° Southeast 480 552 25,400 840 Climbing FlightAware ADS-B (EGLC / LCY)
05:10AM 51.2096 1.5707 112° Southeast 478 550 25,400 1,200 Level FlightAware ADS-B (EGMD / LYX)
05:10AM 51.2120 1.5615 113° Southeast 482 555 25,600 1,560 Climbing FlightAware ADS-B (EGLC / LCY)
05:10AM 51.2011 1.6019 113° Southeast 483 556 25,800 1,020 Climbing FlightAware ADS-B
05:11AM 51.1877 1.6508 114° Southeast 485 558 25,900 900 Climbing FlightAware ADS-B
05:11AM 51.1730 1.7047 114° Southeast 492 566 26,300 960 Climbing FlightAware ADS-B (EGLF / FAB)
05:11AM 51.1607 1.7497 114° Southeast 492 566 26,400 1,080 Climbing FlightAware ADS-B
05:12AM 51.1393 1.8273 114° Southeast 496 571 26,900 1,260 Climbing FlightAware ADS-B (EGLF / FAB)
05:12AM 51.1393 1.8273 114° Southeast 497 572 27,000 1,320 Climbing FlightAware ADS-B
05:12AM 51.1294 1.8634 114° Southeast 497 572 27,100 1,500 Climbing FlightAware ADS-B
05:12AM 51.1299 1.8614 114° Southeast 498 573 27,200 780 Climbing FlightAware ADS-B (EGLC / LCY)
05:12AM 51.1155 1.9137 113° Southeast 497 572 27,300 780 Climbing FlightAware ADS-B (EGHO)
05:12AM 51.1001 1.9695 114° Southeast 501 577 27,600 1,320 Climbing FlightAware ADS-B
05:12AM 51.0991 1.9729 113° Southeast 499 574 27,700 1,260 Climbing FlightAware ADS-B (EGHI / SOU)
05:12AM 51.0865 2.0189 113° Southeast 501 577 27,900 1,080 Climbing FlightAware ADS-B
05:13AM 51.0684 2.0840 114° Southeast 506 582 28,300 1,200 Climbing FlightAware ADS-B
05:13AM 51.0557 2.1294 114° Southeast 505 581 28,600 1,140 Climbing FlightAware ADS-B (EGLF / FAB)
05:13AM 51.0434 2.1734 113° Southeast 504 580 28,800 1,020 Climbing FlightAware ADS-B (EGMD / LYX)
05:14AM 51.0150 2.2748 114° Southeast 509 586 29,300 900 Climbing FlightAware ADS-B (EGMD / LYX)
05:14AM 51.0121 2.2850 114° Southeast 506 582 29,300 960 Level FlightAware ADS-B
05:14AM 50.9855 2.3792 114° Southeast 512 589 29,800 1,320 Climbing FlightAware ADS-B (EGHO)
05:15AM 50.9555 2.4854 114° Southeast 507 583 30,600 1,380 Climbing FlightAware ADS-B (KAUN)
05:15AM 50.9310 2.5714 115° Southeast 504 580 31,100 1,020 Climbing FlightAware ADS-B
05:16AM 50.9040 2.6654 114° Southeast 504 580 31,600 1,080 Climbing FlightAware ADS-B
05:16AM 50.8732 2.7734 114° Southeast 504 580 32,200 1,620 Climbing FlightAware ADS-B (EGHO)
05:16AM 50.8592 2.8223 115° Southeast 502 578 32,800 960 Climbing FlightAware ADS-B
05:17AM 50.8385 2.8945 115° Southeast 502 578 32,800 1,080 Level FlightAware ADS-B (EGHO)
05:17AM 50.8456 2.8699 115° Southeast 499 574 33,500 1,080 Climbing FlightAware ADS-B (EGLF / FAB)
05:18AM 50.7963 3.0407 115° Southeast 499 574 33,800 660 Climbing FlightAware ADS-B
05:18AM 50.7599 3.1661 115° Southeast 497 572 34,300 900 Climbing FlightAware ADS-B (EGLF / FAB)
05:19AM 50.7243 3.2877 115° Southeast 497 572 34,900 540 Climbing FlightAware ADS-B
05:19AM 50.6903 3.4034 115° Southeast 493 567 35,000 60 Climbing FlightAware ADS-B (EGLF / FAB)
05:20AM 50.6475 3.5482 115° Southeast 494 568 35,000  Level FlightAware ADS-B (KAUN)
05:21AM 50.6210 3.6374 115° Southeast 496 571 35,000  Level FlightAware ADS-B
05:21AM 50.5768 3.7855 115° Southeast 494 568 35,000  Level FlightAware ADS-B
05:22AM 50.5600 3.8417 115° Southeast 493 567 35,000  Level FlightAware ADS-B
05:23AM 50.5293 3.9439 115° Southeast 494 568 35,000  Level FlightAware ADS-B (EGLF / FAB)
05:23AM 50.4715 4.1352 115° Southeast 494 568 35,000  Level FlightAware ADS-B (KAUN)
05:23AM 50.4648 4.1572 115° Southeast 494 568 35,000  Level FlightAware ADS-B
05:23AM 50.4523 4.1984 115° Southeast 494 568 35,000  Level FlightAware ADS-B (KAUN)
05:24AM 50.4233 4.2936 116° Southeast 493 567 35,000  Level FlightAware ADS-B (KAUN)
05:25AM 50.4099 4.3374 116° Southeast 493 567 35,000  Level FlightAware ADS-B
05:25AM 50.3492 4.5339 116° Southeast 521 600 35,000  Level FlightAware UK
05:25AM 50.3576 4.5078 116° Southeast 494 568 35,000  Level FlightAware ADS-B
05:25AM 50.3346 4.5823 115° Southeast 492 566 35,000  Level FlightAware ADS-B (KAUN)
05:26AM 50.2998 4.6946 116° Southeast 494 568 35,000  Level FlightAware ADS-B
05:27AM 50.2958 4.7074 116° Southeast 494 568 35,000  Level FlightAware ADS-B
05:27AM 50.2324 4.9110 115° Southeast 492 566 35,000  Level FlightAware ADS-B (KAUN)
05:28AM 50.1730 5.0997 115° Southeast 493 567 35,000  Level FlightAware ADS-B (KAUN)
05:28AM 50.1670 5.1188 115° Southeast 492 566 35,000  Level FlightAware ADS-B (KAUN)
05:29AM 50.1378 5.2107 115° Southeast 492 566 35,000  Level FlightAware ADS-B (KAUN)
05:29AM 50.1089 5.3017 116° Southeast 495 570 35,000  Level FlightAware ADS-B (EDKL)
05:30AM 50.0671 5.4326 116° Southeast 490 564 35,000  Level FlightAware ADS-B (KAUN)
05:30AM 50.0596 5.4560 117° Southeast 494 568 35,000  Level FlightAware ADS-B
05:31AM 50.0262 5.5601 117° Southeast 495 570 35,000  Level FlightAware ADS-B (KAUN)
05:31AM 50.0107 5.6083 116° Southeast 492 566 35,000  Level FlightAware ADS-B (KAUN)
05:31AM 49.9796 5.7048 117° Southeast 497 572 35,000  Level FlightAware ADS-B (EDKL)
05:32AM 49.9499 5.7963 117° Southeast 497 572 35,000  Level FlightAware ADS-B
05:33AM 49.9065 5.9298 117° Southeast 499 574 35,000  Level FlightAware ADS-B (KAUN)
05:34AM 49.8923 5.9731 117° Southeast 499 574 35,000  Level FlightAware ADS-B
05:35AM 49.8776 6.0183 117° Southeast 501 577 35,000  Level FlightAware ADS-B (EDKL)
05:37AM 49.7316 6.4597 117° Southeast 499 574 35,000  Level FlightAware ADS-B (EDKL)
05:39AM 49.6341 6.7504 118° Southeast 497 572 35,000  Level FlightAware ADS-B
05:40AM 49.7316 6.4597 118° Southeast 498 573 35,000  Level FlightAware ADS-B (EDKL)
05:42AM 49.6341 6.7504 118° Southeast 497 572 35,000  Level FlightAware ADS-B
05:43AM 49.6341 6.7504 118° Southeast 502 578 35,000  Level FlightAware ADS-B
05:48AM 48.8241 8.7837 141° Southeast 509 586 35,000  Level FlightAware ADS-B (ETSI / IGS)
05:49AM 48.7520 8.8707 142° Southeast 510 587 35,000  Level FlightAware ADS-B (ETSI / IGS)
05:49AM 48.6928 8.9420 142° Southeast 510 587 35,000  Level FlightAware ADS-B (ETSI / IGS)
05:50AM 48.6231 9.0254 142° Southeast 510 587 35,000  Level FlightAware ADS-B (ETSI / IGS)
05:50AM 48.5718 9.0867 142° Southeast 510 587 35,000  Level FlightAware ADS-B (ETSI / IGS)
05:51AM 48.5349 9.1307 142° Southeast 510 587 35,000  Level FlightAware ADS-B (EDDM / MUC)
05:51AM 48.4639 9.2151 142° Southeast 512 589 35,000  Level FlightAware ADS-B (EDDM / MUC)
05:52AM 48.3844 9.3073 144° Southeast 514 592 35,000  Level FlightAware ADS-B (EDDM / MUC)
05:53AM 48.3802 9.3119 144° Southeast 513 590 35,000  Level FlightAware ADS-B (EDDM / MUC)
05:54AM 48.2095 9.4969 144° Southeast 512 589 35,000  Level FlightAware ADS-B (EDDM / MUC)
05:54AM 48.1397 9.5723 144° Southeast 513 590 35,000  Level FlightAware ADS-B (EDDM / MUC)
05:55AM 48.0759 9.6410 144° Southeast 514 592 35,000  Level FlightAware ADS-B (EDDM / MUC)
05:55AM 48.0593 9.6587 144° Southeast 513 590 35,000  Level FlightAware ADS-B (EDDM / MUC)
05:56AM 47.9274 9.7997 144° Southeast 513 590 35,000  Level FlightAware ADS-B (EDDM / MUC)
05:57AM 47.8562 9.8754 144° Southeast 510 587 35,000  Level FlightAware ADS-B (EDDM / MUC)
05:57AM 47.7925 9.9431 144° Southeast 510 587 35,000  Level FlightAware ADS-B (EDDM / MUC)
05:58AM 47.7332 10.0058 145° Southeast 508 585 35,000  Level FlightAware ADS-B (ETSI / IGS)
05:58AM 47.6565 10.0865 145° Southeast 509 586 35,000  Level FlightAware ADS-B (EDDM / MUC)
05:59AM 47.6006 10.1451 145° Southeast 508 585 35,000  Level FlightAware ADS-B (EDDM / MUC)
05:59AM 47.5451 10.2033 145° Southeast 508 585 35,000  Level FlightAware ADS-B (EDDM / MUC)
06:00AM 47.4610 10.2911 145° Southeast 506 582 35,000  Level FlightAware ADS-B (EDDM / MUC)
06:01AM 47.3850 10.3702 145° Southeast 507 583 35,000  Level FlightAware ADS-B (EDDM / MUC)
06:01AM 47.3105 10.4474 145° Southeast 510 587 35,000  Level FlightAware ADS-B (EDDM / MUC)
06:02AM 47.2386 10.5216 145° Southeast 508 585 35,000  Level FlightAware ADS-B (EDDM / MUC)
06:03AM 47.1704 10.5917 145° Southeast 510 587 35,000  Level FlightAware ADS-B (EDDM / MUC)
06:03AM 47.0977 10.6664 145° Southeast 508 585 35,000  Level FlightAware ADS-B (EDDM / MUC)
06:03AM 47.0759 10.6889 143° Southeast 508 585 35,000  Level FlightAware ADS-B (ETSE)
06:04AM 47.0480 10.7203 143° Southeast 509 586 35,000  Level FlightAware ADS-B (EDDM / MUC)
06:04AM 47.0480 10.7203 138° Southeast 508 585 35,000  Level FlightAware ADS-B (EDDM / MUC)
06:05AM 46.9650 10.8347 133° Southeast 504 580 35,000 60 Level FlightAware ADS-B (EDDM / MUC)
06:05AM 46.9035 10.9315 133° Southeast 502 578 35,100 60 Climbing FlightAware ADS-B (EDDM / MUC)
06:06AM 46.8544 11.0085 133° Southeast 500 575 35,100 -120 Level FlightAware ADS-B (EDDM / MUC)
06:06AM 46.7812 11.1223 133° Southeast 499 574 35,000 -120 Descending FlightAware ADS-B (EDDM / MUC)
06:07AM 46.7326 11.1982 133° Southeast 499 574 35,000  Level FlightAware ADS-B (EDDM / MUC)
06:08AM 46.6927 11.2604 133° Southeast 497 572 35,000  Level FlightAware ADS-B (EDDM / MUC)
06:08AM 46.6315 11.3553 133° Southeast 502 578 35,000 60 Level FlightAware ADS-B (EDDM / MUC)
06:09AM 46.5649 11.4580 133° Southeast 494 568 35,100  Climbing FlightAware ADS-B (EDDM / MUC)
06:09AM 46.5177 11.5306 133° Southeast 494 568 35,000 -120 Descending FlightAware ADS-B (EDDM / MUC)
06:10AM 46.4516 11.6320 133° Southeast 494 568 35,000 60 Level FlightAware ADS-B (EDDM / MUC)
06:11AM 46.3677 11.7601 133° Southeast 489 563 35,100  Climbing FlightAware ADS-B (EDDM / MUC)
06:12AM 46.3070 11.8523 134° Southeast 494 568 35,000 -120 Descending FlightAware ADS-B (EDDM / MUC)
06:12AM 46.2739 11.9027 134° Southeast 494 568 35,000  Level FlightAware ADS-B (ETSE)
06:13AM 46.1844 12.0380 134° Southeast 489 563 35,000  Level FlightAware ADS-B (EDDM / MUC)
06:13AM 46.1212 12.1332 134° Southeast 492 566 35,000  Level FlightAware ADS-B (EDDM / MUC)
06:14AM 46.0762 12.2008 134° Southeast 492 566 35,000  Level FlightAware ADS-B (EDDM / MUC)
06:15AM 46.0093 12.3010 134° Southeast 489 563 35,000  Level FlightAware ADS-B (EDDM / MUC)
06:15AM 45.9528 12.3850 134° Southeast 489 563 35,000  Level FlightAware ADS-B (EDDM / MUC)
06:16AM 45.8855 12.4850 134° Southeast 494 568 35,000  Level FlightAware ADS-B (EDDM / MUC)
06:16AM 45.8367 12.5573 134° Southeast 494 568 35,000  Level FlightAware ADS-B (EDDM / MUC)
06:17AM 45.7858 12.6325 134° Southeast 497 572 35,000  Level FlightAware ADS-B (EDDM / MUC)
06:18AM 45.7253 12.7215 134° Southeast 497 572 35,000  Level FlightAware ADS-B (ETSE)
06:18AM 45.6962 12.7643 134° Southeast 497 572 35,000 60 Level FlightAware ADS-B (EDDM / MUC)
06:19AM 45.5917 12.9172 134° Southeast 496 571 35,100  Climbing FlightAware ADS-B (EDDM / MUC)
06:20AM 45.5843 12.9280 132° Southeast 495 570 35,000 -60 Descending FlightAware ADS-B (EDDM / MUC)
06:21AM 45.5843 12.9280 127° Southeast 490 564 35,000  Level FlightAware ADS-B (EDDM / MUC)
06:24AM 45.4314 13.2075 128° Southeast  Level Estimated
06:25AM 45.3676 13.3235 128° Southeast  Level Estimated
06:26AM 45.3036 13.4393 128° Southeast  Level Estimated
06:27AM 45.2395 13.5548 128° Southeast  Level Estimated
06:28AM 45.1752 13.6700 128° Southeast  Level Estimated
06:29AM 45.1109 13.7850 128° Southeast  Level Estimated
06:30AM 45.0464 13.8997 128° Southeast  Level Estimated
06:31AM 44.9819 14.0142 129° Southeast  Level Estimated
06:32AM 44.9172 14.1284 129° Southeast  Level Estimated
06:33AM 44.8524 14.2423 129° Southeast  Level Estimated
06:34AM 44.7875 14.3560 129° Southeast  Level Estimated
06:35AM 44.7225 14.4695 129° Southeast  Level Estimated
06:36AM 44.6573 14.5826 129° Southeast  Level Estimated
06:37AM 44.5921 14.6956 129° Southeast  Level Estimated
06:38AM 44.5267 14.8082 129° Southeast  Level Estimated
06:39AM 44.4612 14.9207 129° Southeast  Level Estimated
06:40AM 44.3956 15.0328 129° Southeast  Level Estimated
06:41AM 44.3300 15.1447 129° Southeast  Level Estimated
06:42AM 44.2642 15.2564 129° Southeast  Level Estimated
06:43AM 44.1982 15.3678 130° Southeast  Level Estimated
06:44AM 44.1322 15.4790 130° Southeast  Level Estimated
06:45AM 44.0661 15.5899 130° Southeast  Level Estimated
06:46AM 43.9999 15.7006 130° Southeast  Level Estimated
06:47AM 43.9335 15.8110 130° Southeast  Level Estimated
06:48AM 43.8671 15.9212 130° Southeast  Level Estimated
06:49AM 43.8005 16.0311 130° Southeast  Level Estimated
06:50AM 43.7339 16.1408 130° Southeast  Level Estimated
06:51AM 43.6671 16.2503 130° Southeast  Level Estimated
06:52AM 43.6003 16.3595 130° Southeast  Level Estimated
06:53AM 43.5284 16.4764 130° Southeast  Level Estimated
06:54AM 43.4565 16.5930 130° Southeast  Level Estimated
06:55AM 43.3844 16.7093 130° Southeast  Level Estimated
06:56AM 43.3122 16.8253 131° Southeast  Level Estimated
06:57AM 43.2398 16.9411 131° Southeast  Level Estimated
06:58AM 43.1674 17.0566 131° Southeast  Level Estimated
06:59AM 43.0949 17.1718 131° Southeast  Level Estimated
07:00AM 43.0222 17.2868 131° Southeast  Level Estimated
07:01AM 42.9494 17.4015 131° Southeast  Level Estimated
07:02AM 42.8765 17.5159 131° Southeast  Level Estimated
07:03AM 42.8035 17.6300 131° Southeast  Level Estimated
07:04AM 42.7304 17.7439 131° Southeast  Level Estimated
07:05AM 42.6571 17.8575 131° Southeast  Level Estimated
07:06AM 42.5838 17.9709 131° Southeast  Level Estimated
07:07AM 42.5103 18.0839 131° Southeast  Level Estimated
07:08AM 42.4368 18.1967 131° Southeast  Level Estimated
07:09AM 42.3631 18.3093 132° Southeast  Level Estimated
07:10AM 42.2893 18.4216 132° Southeast  Level Estimated
07:11AM 42.2154 18.5336 132° Southeast  Level Estimated
07:12AM 42.1414 18.6453 132° Southeast  Level Estimated
07:13AM 42.0673 18.7568 132° Southeast  Level Estimated
07:14AM 41.9930 18.8680 132° Southeast  Level Estimated
07:15AM 41.9187 18.9790 132° Southeast  Level Estimated
07:16AM 41.8443 19.0897 132° Southeast  Level Estimated
07:17AM 41.7697 19.2002 132° Southeast  Level Estimated
07:18AM 41.6951 19.3104 132° Southeast  Level Estimated
07:19AM 41.6203 19.4203 132° Southeast  Level Estimated
07:20AM 41.5454 19.5300 132° Southeast  Level Estimated
07:21AM 41.4705 19.6394 132° Southeast  Level Estimated
07:22AM 41.4147 19.7206 132° Southeast  Level Estimated